createdAt,value
2023-05-16T00:02:06.387Z,14.47
2023-05-16T00:04:34.131Z,15.30
2023-05-16T00:07:01.374Z,12.80
2023-05-16T00:09:28.438Z,14.00
2023-05-16T00:11:56.331Z,11.37
2023-05-16T00:14:26.292Z,12.23
2023-05-16T00:16:54.863Z,15.03
2023-05-16T00:19:22.055Z,11.60
2023-05-16T00:21:49.268Z,15.43
2023-05-16T00:24:16.890Z,12.10
2023-05-16T00:26:44.207Z,13.83
2023-05-16T00:29:11.282Z,11.03
2023-05-16T00:31:38.425Z,11.40
2023-05-16T00:34:05.541Z,13.20
2023-05-16T00:36:33.064Z,14.63
2023-05-16T00:39:00.134Z,12.40
2023-05-16T00:41:27.846Z,11.87
2023-05-16T00:43:54.958Z,17.23
2023-05-16T00:46:22.062Z,12.53
2023-05-16T00:48:49.136Z,12.90
2023-05-16T00:51:17.818Z,14.13
2023-05-16T00:53:45.144Z,11.37
2023-05-16T00:56:12.451Z,15.43
2023-05-16T00:58:39.656Z,12.13
2023-05-16T01:01:08.144Z,13.80
2023-05-16T01:03:35.511Z,12.50
2023-05-16T01:06:02.786Z,11.97
2023-05-16T01:08:29.809Z,12.70
2023-05-16T01:11:28.704Z,14.13
2023-05-16T01:14:15.110Z,12.23
2023-05-16T01:16:58.470Z,12.40
2023-05-16T01:19:46.593Z,14.03
2023-05-16T01:22:33.421Z,14.33
2023-05-16T01:25:16.542Z,15.13
2023-05-16T01:27:45.934Z,12.20
2023-05-16T01:30:20.217Z,15.87
2023-05-16T01:32:47.413Z,13.13
2023-05-16T01:35:16.752Z,13.60
2023-05-16T01:38:29.428Z,16.13
2023-05-16T01:41:17.411Z,15.00
2023-05-16T01:43:49.119Z,15.27
2023-05-16T01:46:26.353Z,14.40
2023-05-16T01:49:00.550Z,12.03
2023-05-16T01:51:33.534Z,13.67
2023-05-16T01:54:06.785Z,13.50
2023-05-16T01:56:34.603Z,14.60
2023-05-16T01:59:02.382Z,15.73
2023-05-16T02:01:32.775Z,13.93
2023-05-16T02:03:59.927Z,17.00
2023-05-16T02:06:27.537Z,13.50
2023-05-16T02:08:56.512Z,18.03
2023-05-16T02:11:23.833Z,15.80
2023-05-16T02:13:51.830Z,17.23
2023-05-16T02:16:18.913Z,16.30
2023-05-16T02:18:46.155Z,14.20
2023-05-16T02:21:13.504Z,16.43
2023-05-16T02:23:40.666Z,17.73
2023-05-16T02:26:07.783Z,15.23
2023-05-16T02:28:34.937Z,15.90
2023-05-16T02:31:02.307Z,19.43
2023-05-16T02:33:30.871Z,16.60
2023-05-16T02:35:58.057Z,19.63
2023-05-16T02:38:26.431Z,16.07
2023-05-16T02:40:55.975Z,17.67
2023-05-16T02:43:23.061Z,15.90
2023-05-16T02:45:50.288Z,15.93
2023-05-16T02:48:17.410Z,23.33
2023-05-16T02:50:44.491Z,15.67
2023-05-16T02:53:11.812Z,18.03
2023-05-16T02:55:39.008Z,18.80
2023-05-16T02:58:06.203Z,15.70
2023-05-16T03:00:33.645Z,15.67
2023-05-16T03:03:00.812Z,20.97
2023-05-16T03:05:28.926Z,20.40
2023-05-16T03:07:56.202Z,18.47
2023-05-16T03:10:23.389Z,15.63
2023-05-16T03:12:50.927Z,21.83
2023-05-16T03:15:18.040Z,19.43
2023-05-16T03:17:45.107Z,20.03
2023-05-16T03:20:12.749Z,18.47
2023-05-16T03:22:40.619Z,27.07
2023-05-16T03:25:08.202Z,18.20
2023-05-16T03:27:35.352Z,23.00
2023-05-16T03:30:02.548Z,17.00
2023-05-16T03:32:29.764Z,16.00
2023-05-16T03:34:56.978Z,17.43
2023-05-16T03:37:24.152Z,18.27
2023-05-16T03:39:51.410Z,18.93
2023-05-16T03:42:18.581Z,19.53
2023-05-16T03:44:46.152Z,19.10
2023-05-16T03:47:13.308Z,18.17
2023-05-16T03:49:41.091Z,19.50
2023-05-16T03:52:08.220Z,16.87
2023-05-16T03:54:35.336Z,17.47
2023-05-16T03:57:02.392Z,18.10
2023-05-16T03:59:29.620Z,17.63
2023-05-16T04:01:56.800Z,19.63
2023-05-16T04:04:23.927Z,18.00
2023-05-16T04:06:51.477Z,20.40
2023-05-16T04:09:18.863Z,16.97
2023-05-16T04:11:46.412Z,17.40
2023-05-16T04:14:13.467Z,18.20
2023-05-16T04:16:40.771Z,20.57
2023-05-16T04:19:08.086Z,17.93
2023-05-16T04:21:36.483Z,18.03
2023-05-16T04:24:03.757Z,17.43
2023-05-16T04:26:31.916Z,18.20
2023-05-16T04:29:00.202Z,19.03
2023-05-16T04:31:27.555Z,19.77
2023-05-16T04:33:55.038Z,18.03
2023-05-16T04:36:22.194Z,22.37
2023-05-16T04:38:49.245Z,18.13
2023-05-16T04:41:16.699Z,20.13
2023-05-16T04:43:44.737Z,17.20
2023-05-16T04:46:12.487Z,18.90
2023-05-16T04:48:39.598Z,17.83
2023-05-16T04:51:06.811Z,20.13
2023-05-16T04:53:34.146Z,19.77
2023-05-16T04:56:01.695Z,20.87
2023-05-16T04:58:28.798Z,22.23
2023-05-16T05:00:56.012Z,19.90
2023-05-16T05:03:23.436Z,18.00
2023-05-16T05:05:50.923Z,19.80
2023-05-16T05:08:19.151Z,18.67
2023-05-16T05:10:46.412Z,19.67
2023-05-16T05:13:13.781Z,21.60
2023-05-16T05:15:41.212Z,22.90
2023-05-16T05:18:08.577Z,21.30
2023-05-16T05:20:36.488Z,25.60
2023-05-16T05:23:03.688Z,22.40
2023-05-16T05:25:31.011Z,23.93
2023-05-16T05:27:58.231Z,21.43
2023-05-16T05:30:25.391Z,27.33
2023-05-16T05:32:53.539Z,29.37
2023-05-16T05:35:21.130Z,34.53
2023-05-16T05:37:48.838Z,22.97
2023-05-16T05:40:16.269Z,31.63
2023-05-16T05:42:46.195Z,29.93
2023-05-16T05:45:15.489Z,28.53
2023-05-16T05:47:43.573Z,34.87
2023-05-16T05:50:14.755Z,26.13
2023-05-16T05:52:42.049Z,31.00
2023-05-16T05:55:09.750Z,29.60
2023-05-16T05:57:37.034Z,30.67
2023-05-16T06:00:05.351Z,28.00
2023-05-16T06:02:35.183Z,31.87
2023-05-16T06:05:02.518Z,29.60
2023-05-16T06:07:29.696Z,26.57
2023-05-16T06:09:56.784Z,27.33
2023-05-16T06:12:23.862Z,37.17
2023-05-16T06:14:50.949Z,33.50
2023-05-16T06:17:18.157Z,35.50
2023-05-16T06:19:45.333Z,34.97
2023-05-16T06:22:12.584Z,36.20
2023-05-16T06:24:39.622Z,37.23
2023-05-16T06:27:07.379Z,31.93
2023-05-16T06:29:34.466Z,36.83
2023-05-16T06:32:01.769Z,42.47
2023-05-16T06:34:28.920Z,44.33
2023-05-16T06:36:56.256Z,50.50
2023-05-16T06:39:23.326Z,42.80
2023-05-16T06:41:50.662Z,45.83
2023-05-16T06:44:17.909Z,54.60
2023-05-16T06:46:45.291Z,53.67
2023-05-16T06:49:12.402Z,44.33
2023-05-16T06:51:40.554Z,49.33
2023-05-16T06:54:07.678Z,47.90
2023-05-16T06:56:35.043Z,47.77
2023-05-16T06:59:02.299Z,45.47
2023-05-16T07:01:29.545Z,36.93
2023-05-16T07:03:56.858Z,39.37
2023-05-16T07:06:24.081Z,35.10
2023-05-16T07:08:51.482Z,30.30
2023-05-16T07:11:18.550Z,36.90
2023-05-16T07:13:45.628Z,30.93
2023-05-16T07:16:13.425Z,26.90
2023-05-16T07:18:40.653Z,30.80
2023-05-16T07:21:08.363Z,28.13
2023-05-16T07:23:35.547Z,29.00
2023-05-16T07:26:03.472Z,24.27
2023-05-16T07:28:30.594Z,23.27
2023-05-16T07:30:58.889Z,20.53
2023-05-16T07:33:27.453Z,25.40
2023-05-16T07:36:07.816Z,21.67
2023-05-16T07:38:42.365Z,25.07
2023-05-16T07:41:09.517Z,21.90
2023-05-16T07:43:36.985Z,26.10
2023-05-16T07:46:04.258Z,25.73
2023-05-16T07:48:31.511Z,27.60
2023-05-16T07:50:58.717Z,27.70
2023-05-16T07:53:26.155Z,27.30
2023-05-16T07:55:53.394Z,26.27
2023-05-16T07:58:20.624Z,22.73
2023-05-16T08:00:47.748Z,24.53
2023-05-16T08:03:15.079Z,22.27
2023-05-16T08:05:42.683Z,20.17
2023-05-16T08:08:09.842Z,18.07
2023-05-16T08:10:36.942Z,25.17
2023-05-16T08:13:04.507Z,17.80
2023-05-16T08:15:31.620Z,19.40
2023-05-16T08:17:59.410Z,17.70
2023-05-16T08:20:26.983Z,21.50
2023-05-16T08:22:55.230Z,18.33
2023-05-16T08:25:22.477Z,19.20
2023-05-16T08:27:51.522Z,20.23
2023-05-16T08:30:19.256Z,15.93
2023-05-16T08:32:46.558Z,15.77
2023-05-16T08:35:13.791Z,19.23
2023-05-16T08:37:40.912Z,20.33
2023-05-16T08:40:11.195Z,19.10
2023-05-16T08:42:38.541Z,18.97
2023-05-16T08:45:07.681Z,16.10
2023-05-16T08:47:36.901Z,16.80
2023-05-16T08:50:04.662Z,16.43
2023-05-16T08:52:33.524Z,20.40
2023-05-16T08:55:11.085Z,12.43
2023-05-16T08:57:40.151Z,13.87
2023-05-16T09:00:12.046Z,17.43
2023-05-16T09:02:42.001Z,19.97
2023-05-16T09:05:13.435Z,16.13
2023-05-16T09:07:42.203Z,15.23
2023-05-16T09:10:10.653Z,16.43
2023-05-16T09:12:40.111Z,16.90
2023-05-16T09:15:09.657Z,15.93
2023-05-16T09:17:44.587Z,12.03
2023-05-16T09:20:15.622Z,26.97
2023-05-16T09:22:57.529Z,13.30
2023-05-16T09:25:30.824Z,16.27
2023-05-16T09:28:01.876Z,17.50
2023-05-16T09:30:33.955Z,14.50
2023-05-16T09:33:01.937Z,18.67
2023-05-16T09:37:59.705Z,15.57
2023-05-16T09:40:29.725Z,17.33
2023-05-16T09:43:05.939Z,15.87
2023-05-16T09:45:34.781Z,11.93
2023-05-16T09:48:08.186Z,12.93
2023-05-16T09:50:37.341Z,13.63
2023-05-16T09:53:05.650Z,14.90
2023-05-16T09:55:33.837Z,13.40
2023-05-16T09:58:01.352Z,14.60
2023-05-16T10:00:33.796Z,13.43
2023-05-16T10:03:05.776Z,15.00
2023-05-16T10:05:34.966Z,11.63
2023-05-16T10:08:04.603Z,13.80
2023-05-16T10:10:36.655Z,13.40
2023-05-16T10:13:07.235Z,12.17
2023-05-16T10:15:36.977Z,17.97
2023-05-16T10:18:04.902Z,19.27
2023-05-16T10:20:32.136Z,12.43
2023-05-16T10:22:59.737Z,12.67
2023-05-16T10:25:34.828Z,12.53
2023-05-16T10:28:04.187Z,16.17
2023-05-16T10:30:33.987Z,16.63
2023-05-16T10:33:02.816Z,18.20
2023-05-16T10:35:31.435Z,11.73
2023-05-16T10:37:59.508Z,13.37
2023-05-16T10:40:28.849Z,14.73
2023-05-16T10:43:01.148Z,12.53
2023-05-16T10:45:28.929Z,14.30
2023-05-16T10:47:59.385Z,12.07
2023-05-16T10:50:45.892Z,12.57
2023-05-16T10:53:22.105Z,11.43
2023-05-16T10:56:01.506Z,11.53
2023-05-16T10:58:31.485Z,10.30
2023-05-16T11:01:30.773Z,10.97
2023-05-16T11:04:02.060Z,8.57
2023-05-16T11:06:32.650Z,9.77
2023-05-16T11:09:07.290Z,11.30
2023-05-16T11:12:09.752Z,12.80
2023-05-16T11:14:42.287Z,13.83
2023-05-16T11:17:20.829Z,9.47
2023-05-16T11:19:59.291Z,7.77
2023-05-16T11:22:34.386Z,8.10
2023-05-16T11:25:02.576Z,9.20
2023-05-16T11:27:36.202Z,9.00
2023-05-16T11:30:06.398Z,13.50
2023-05-16T11:32:39.516Z,8.50
2023-05-16T11:35:11.068Z,12.40
2023-05-16T11:37:40.280Z,7.87
2023-05-16T11:40:09.952Z,6.77
2023-05-16T11:42:43.218Z,10.03
2023-05-16T11:45:19.866Z,5.77
2023-05-16T11:47:48.817Z,6.40
2023-05-16T11:50:23.698Z,6.70
2023-05-16T11:52:57.501Z,6.80
2023-05-16T11:58:04.617Z,6.40
2023-05-16T12:00:31.734Z,5.47
2023-05-16T12:03:04.790Z,5.47
2023-05-16T12:05:34.053Z,5.17
2023-05-16T12:08:02.884Z,6.30
2023-05-16T12:10:34.829Z,5.10
2023-05-16T12:13:03.538Z,8.17
2023-05-16T12:15:31.314Z,7.97
2023-05-16T12:17:59.050Z,5.27
2023-05-16T12:20:26.636Z,6.83
2023-05-16T12:22:53.879Z,5.83
2023-05-16T12:25:41.909Z,7.30
2023-05-16T12:28:09.144Z,5.47
2023-05-16T12:30:36.270Z,7.80
2023-05-16T12:33:18.702Z,6.57
2023-05-16T12:35:48.066Z,5.73
2023-05-16T12:38:17.396Z,8.17
2023-05-16T12:40:45.614Z,5.90
2023-05-16T12:43:23.467Z,6.20
2023-05-16T12:45:56.591Z,9.90
2023-05-16T12:48:32.879Z,5.00
2023-05-16T12:51:16.390Z,8.63
2023-05-16T12:53:57.596Z,5.90
2023-05-16T12:56:42.198Z,4.60
2023-05-16T12:59:09.381Z,5.37
2023-05-16T13:01:37.032Z,5.47
2023-05-16T13:04:05.306Z,4.80
2023-05-16T13:06:48.921Z,4.50
2023-05-16T13:09:19.958Z,7.13
2023-05-16T13:11:47.208Z,4.77
2023-05-16T13:14:14.243Z,9.77
2023-05-16T13:16:41.419Z,8.17
2023-05-16T13:19:08.880Z,4.93
2023-05-16T13:21:36.072Z,11.07
2023-05-16T13:24:03.337Z,4.53
2023-05-16T13:26:30.641Z,4.90
2023-05-16T13:28:57.675Z,6.63
2023-05-16T13:31:24.777Z,4.30
2023-05-16T13:33:52.128Z,4.30
2023-05-16T13:36:19.224Z,10.07
2023-05-16T13:38:46.321Z,7.57
2023-05-16T13:41:14.257Z,4.80
2023-05-16T13:43:41.459Z,4.53
2023-05-16T13:46:08.690Z,5.10
2023-05-16T13:48:36.128Z,4.70
2023-05-16T13:51:03.265Z,4.80
2023-05-16T13:53:30.382Z,5.50
2023-05-16T13:55:57.410Z,4.40
2023-05-16T13:58:24.539Z,6.80
2023-05-16T14:00:51.915Z,8.63
2023-05-16T14:03:19.369Z,5.07
2023-05-16T14:05:46.785Z,5.00
2023-05-16T14:08:14.424Z,6.93
2023-05-16T14:10:41.538Z,5.97
2023-05-16T14:13:08.693Z,5.47
2023-05-16T14:15:35.941Z,6.43
2023-05-16T14:18:04.680Z,4.20
2023-05-16T14:20:31.978Z,7.23
2023-05-16T14:22:59.324Z,5.83
2023-05-16T14:25:26.932Z,4.77
2023-05-16T14:27:54.509Z,3.10
2023-05-16T14:30:21.805Z,7.73
2023-05-16T14:32:48.894Z,5.80
2023-05-16T14:35:16.439Z,3.70
2023-05-16T14:37:43.498Z,10.63
2023-05-16T14:40:10.981Z,13.40
2023-05-16T14:42:38.455Z,6.90
2023-05-16T14:45:06.760Z,9.63
2023-05-16T14:47:33.904Z,5.80
2023-05-16T14:50:01.372Z,8.87
2023-05-16T14:52:28.657Z,7.20
2023-05-16T14:54:55.744Z,7.57
2023-05-16T14:57:23.054Z,12.07
2023-05-16T14:59:50.601Z,5.80
2023-05-16T15:02:17.766Z,7.10
2023-05-16T15:04:45.052Z,5.93
2023-05-16T15:07:12.139Z,6.87
2023-05-16T15:09:39.216Z,10.50
2023-05-16T15:12:07.992Z,9.17
2023-05-16T15:14:35.563Z,7.97
2023-05-16T15:17:04.409Z,9.67
2023-05-16T15:19:32.362Z,5.00
2023-05-16T15:22:02.608Z,5.03
2023-05-16T15:24:30.028Z,15.47
2023-05-16T15:26:57.902Z,7.63
2023-05-16T15:29:26.406Z,10.20
2023-05-16T15:31:53.547Z,8.57
2023-05-16T15:34:20.692Z,8.60
2023-05-16T15:36:47.918Z,8.67
2023-05-16T15:39:15.145Z,10.00
2023-05-16T15:42:05.314Z,6.67
2023-05-16T15:44:30.550Z,6.03
2023-05-16T15:46:57.753Z,10.40
2023-05-16T15:49:24.994Z,6.33
2023-05-16T15:51:53.066Z,7.57
2023-05-16T15:54:20.807Z,7.23
2023-05-16T15:56:48.186Z,23.30
2023-05-16T15:59:15.492Z,8.23
2023-05-16T16:01:42.904Z,7.07
2023-05-16T16:04:10.133Z,5.40
2023-05-16T16:06:37.565Z,7.17
2023-05-16T16:09:04.906Z,8.30
2023-05-16T16:11:32.371Z,7.30
2023-05-16T16:13:59.951Z,14.53
2023-05-16T16:16:27.985Z,5.40
2023-05-16T16:18:55.243Z,5.90
2023-05-16T16:21:23.953Z,5.97
2023-05-16T16:23:51.327Z,10.53
2023-05-16T16:26:18.860Z,6.77
2023-05-16T16:28:46.127Z,8.00
2023-05-16T16:31:13.409Z,10.33
2023-05-16T16:33:42.361Z,6.20
2023-05-16T16:36:10.299Z,3.57
2023-05-16T16:38:37.416Z,5.90
2023-05-16T16:41:04.584Z,5.87
2023-05-16T16:43:31.673Z,5.77
2023-05-16T16:45:58.873Z,7.70
2023-05-16T16:48:26.440Z,9.10
2023-05-16T16:50:54.039Z,11.80
2023-05-16T16:53:21.150Z,8.70
2023-05-16T16:55:48.297Z,8.17
2023-05-16T16:58:15.401Z,8.37
2023-05-16T17:00:42.562Z,8.47
2023-05-16T17:03:11.046Z,5.87
2023-05-16T17:05:38.284Z,11.67
2023-05-16T17:08:05.976Z,6.80
2023-05-16T17:10:33.155Z,6.70
2023-05-16T17:13:07.118Z,7.40
2023-05-16T17:15:34.619Z,8.23
2023-05-16T17:18:01.802Z,6.80
2023-05-16T17:20:29.034Z,11.53
2023-05-16T17:22:56.499Z,9.30
2023-05-16T17:25:23.572Z,11.87
2023-05-16T17:27:50.713Z,6.30
2023-05-16T17:30:18.729Z,10.60
2023-05-16T17:32:46.251Z,4.20
2023-05-16T17:35:13.480Z,4.80
2023-05-16T17:37:41.447Z,16.50
2023-05-16T17:40:11.923Z,9.63
2023-05-16T17:42:39.031Z,10.47
2023-05-16T17:45:08.082Z,5.83
2023-05-16T17:47:35.235Z,12.00
2023-05-16T17:50:02.518Z,7.30
2023-05-16T17:52:29.737Z,7.30
2023-05-16T17:54:56.814Z,5.50
2023-05-16T17:57:23.903Z,6.07
2023-05-16T17:59:50.918Z,13.93
2023-05-16T18:02:18.675Z,10.23
2023-05-16T18:04:45.740Z,6.50
2023-05-16T18:07:12.794Z,8.53
2023-05-16T18:09:39.824Z,7.17
2023-05-16T18:12:07.299Z,8.40
2023-05-16T18:14:34.418Z,10.93
2023-05-16T18:17:01.539Z,4.60
2023-05-16T18:19:28.808Z,11.77
2023-05-16T18:21:56.775Z,8.80
2023-05-16T18:24:23.966Z,6.20
2023-05-16T18:26:51.214Z,11.27
2023-05-16T18:29:18.406Z,8.60
2023-05-16T18:31:45.544Z,7.83
2023-05-16T18:34:12.937Z,6.87
2023-05-16T18:36:40.099Z,5.77
2023-05-16T18:39:07.207Z,8.43
2023-05-16T18:41:34.661Z,7.93
2023-05-16T18:44:01.802Z,9.80
2023-05-16T18:46:29.019Z,10.77
2023-05-16T18:48:57.908Z,9.17
2023-05-16T18:51:25.376Z,11.13
2023-05-16T18:53:52.774Z,15.43
2023-05-16T18:56:20.144Z,9.50
2023-05-16T18:58:47.892Z,11.70
2023-05-16T19:01:15.044Z,9.57
2023-05-16T19:03:42.305Z,10.23
2023-05-16T19:06:09.549Z,12.50
2023-05-16T19:08:47.046Z,12.73
2023-05-16T19:11:14.702Z,8.23
2023-05-16T19:13:41.835Z,8.60
2023-05-16T19:16:09.347Z,9.87
2023-05-16T19:18:37.154Z,5.47
2023-05-16T19:21:04.545Z,9.93
2023-05-16T19:23:31.883Z,9.13
2023-05-16T19:25:59.581Z,13.90
2023-05-16T19:28:26.805Z,6.67
2023-05-16T19:30:54.027Z,13.47
2023-05-16T19:33:21.840Z,6.37
2023-05-16T19:35:51.535Z,6.03
2023-05-16T19:38:20.047Z,4.03
2023-05-16T19:40:47.267Z,8.13
2023-05-16T19:43:14.476Z,7.20
2023-05-16T19:45:41.650Z,5.07
2023-05-16T19:48:09.577Z,7.13
2023-05-16T19:50:37.180Z,5.07
2023-05-16T19:53:04.463Z,7.07
2023-05-16T19:55:32.103Z,6.27
2023-05-16T19:57:59.299Z,11.90
2023-05-16T20:00:26.418Z,11.53
2023-05-16T20:02:53.615Z,12.07
2023-05-16T20:05:23.263Z,4.33
2023-05-16T20:07:51.003Z,6.40
2023-05-16T20:10:19.794Z,8.57
2023-05-16T20:12:48.426Z,2.43
2023-05-16T20:15:16.224Z,4.33
2023-05-16T20:17:43.406Z,7.23
2023-05-16T20:20:11.063Z,4.43
2023-05-16T20:22:41.966Z,4.40
2023-05-16T20:25:11.421Z,5.40
2023-05-16T20:27:39.233Z,10.60
2023-05-16T20:30:07.810Z,4.90
2023-05-16T20:32:35.661Z,6.50
2023-05-16T20:35:04.989Z,9.20
2023-05-16T20:37:32.142Z,5.67
2023-05-16T20:39:59.369Z,3.90
2023-05-16T20:42:26.642Z,6.20
2023-05-16T20:44:53.932Z,3.73
2023-05-16T20:47:21.583Z,7.60
2023-05-16T20:49:48.852Z,8.27
2023-05-16T20:52:16.069Z,4.47
2023-05-16T20:54:43.102Z,6.83
2023-05-16T20:57:12.437Z,3.10
2023-05-16T20:59:39.660Z,7.23
2023-05-16T21:02:10.130Z,9.73
2023-05-16T21:04:38.268Z,2.93
2023-05-16T21:07:08.160Z,5.60
2023-05-16T21:09:37.979Z,5.60
2023-05-16T21:12:05.993Z,4.03
2023-05-16T21:14:33.086Z,13.17
2023-05-16T21:17:03.367Z,7.10
2023-05-16T21:19:34.642Z,3.83
2023-05-16T21:22:04.089Z,2.73
2023-05-16T21:24:35.369Z,2.93
2023-05-16T21:27:04.072Z,10.03
2023-05-16T21:29:31.435Z,3.30
2023-05-16T21:31:58.854Z,3.00
2023-05-16T21:34:26.132Z,3.53
2023-05-16T21:36:53.950Z,2.27
2023-05-16T21:39:21.029Z,5.97
2023-05-16T21:41:48.141Z,8.90
2023-05-16T21:44:17.279Z,8.53
2023-05-16T21:46:45.113Z,3.83
2023-05-16T21:49:12.888Z,1.43
2023-05-16T21:51:40.080Z,3.33
2023-05-16T21:54:07.101Z,4.07
2023-05-16T21:56:34.178Z,1.80
2023-05-16T21:59:01.390Z,2.10
2023-05-16T22:01:29.461Z,5.67
2023-05-16T22:03:57.436Z,6.20
2023-05-16T22:06:25.476Z,5.83
2023-05-16T22:08:53.306Z,30.50
2023-05-16T22:11:21.870Z,3.93
2023-05-16T22:13:50.640Z,2.40
2023-05-16T22:16:18.430Z,2.27
2023-05-16T22:18:45.769Z,1.90
2023-05-16T22:21:13.010Z,4.40
2023-05-16T22:23:40.058Z,6.23
2023-05-16T22:26:07.309Z,3.90
2023-05-16T22:28:34.394Z,3.20
2023-05-16T22:31:01.514Z,3.63
2023-05-16T22:33:28.841Z,4.00
2023-05-16T22:35:56.295Z,5.70
2023-05-16T22:38:23.403Z,2.17
2023-05-16T22:40:50.517Z,2.83
2023-05-16T22:43:17.664Z,6.77
2023-05-16T22:45:44.730Z,2.67
2023-05-16T22:48:12.018Z,7.50
2023-05-16T22:50:39.258Z,2.57
2023-05-16T22:53:06.375Z,5.10
2023-05-16T22:55:34.934Z,1.70
2023-05-16T22:58:02.085Z,4.20
2023-05-16T23:00:29.239Z,3.77
2023-05-16T23:02:56.558Z,5.07
2023-05-16T23:05:23.885Z,2.30
2023-05-16T23:07:51.099Z,8.23
2023-05-16T23:10:18.205Z,2.03
2023-05-16T23:12:45.296Z,1.80
2023-05-16T23:15:13.424Z,4.07
2023-05-16T23:17:40.916Z,6.77
2023-05-16T23:20:08.757Z,1.90
2023-05-16T23:22:35.860Z,3.23
2023-05-16T23:25:03.171Z,5.07
2023-05-16T23:27:30.344Z,3.50
2023-05-16T23:29:58.112Z,6.67
2023-05-16T23:32:25.237Z,9.67
2023-05-16T23:34:52.620Z,3.93
2023-05-16T23:37:19.738Z,6.43
2023-05-16T23:39:46.803Z,4.63
2023-05-16T23:42:13.948Z,3.57
2023-05-16T23:44:41.937Z,2.77
2023-05-16T23:47:09.476Z,3.77
2023-05-16T23:49:36.583Z,2.93
2023-05-16T23:52:05.951Z,2.50
2023-05-16T23:54:34.264Z,1.77
2023-05-16T23:57:01.531Z,3.40
2023-05-16T23:59:28.656Z,1.90
